Main page
METAR-TAF:

METAR-TAF

Airports :

San Sebastián, Spain

San Sebastián Airport

latitude: 43-21N, longitude: 001-48W, elevation: 5 m

Current weather observation

The report was made 36 minutes ago, at 15:00 UTC
Wind 2 kt from the East/Northeast
Temperature 15°C
Humidity 82%
Pressure 1029 hPa
Visibility 10 km or more
Few clouds at a height of 2000 ft
Broken clouds at a height of 4400 ft

METAR: LESO 231500Z 07002KT 9999 FEW020 BKN044 15/12 Q1029

Time: 16:36 (15:36 UTC)

Forecast

The report was made 4 hours and 36 minutes ago, at 11:00 UTC
Forecast valid from 23 at 12 UTC to 24 at 12 UTC
Wind 5 kt from the South/Southwest
Visibility 10 km or more
Scattered clouds at a height of 2000 ft
Probability 30% :
Temporary
from 24 at 09 UTC to 24 at 12 UTC
Wind 10 kt from the West

TAF: LESO 231100Z 2312/2412 21005KT 9999 SCT020 TX16/2315Z TN10/2406Z PROB30 TEMPO 2409/2412 27010KT

Weather observations and forecasts of more than 4000 airports (METAR and TAF reports).

The available stations are represented by yellow and red dots on the map.

Hover mouse over dot to see the name of the station.

Then click to see weather observations and forecasts.

To change the map : click on the green buttons with a black cross to zoom in, on the green button with a dash to zoom out, or on the green arrows for adjacent maps.


METAR-TAF: